• Join FlightAware (Why Join?)
  • Login
  • US Flag 
09:08PM EDT


 

Airport Tracker/Info


-or-


 

Live Flight TrackerFlight Track Log ✈ AWE3988 ✈ 05-Oct-2013 ✈ KMHT - KPHL

Flight Track Log - Related Links

Times and Time Zones

All times are in EDT time to prevent confusion due to time zone crossing. See the AWE3988 flight status page for this flight to view local times or setup timezone preferences in your user account.

Time Position Orientation Groundspeed Altitude Reporting Facility
EDT Latitude Longitude Course Direction KTS MPH feet Rate Location/Type
03:53PM 42.9833 -71.4000 20° North 186 214 2,600  Level KA90
03:54PM 43.0272 -71.4064 354° North 238 274 4,500 2,460 Climbing Boston Center
03:55PM 42.7402 -71.6911 270° West  Level Estimated
03:55PM 43.0528 -71.4856 294° West 218 251 7,300  Level Boston Center
03:56PM 42.6758 -71.7759 270° West  Level Estimated
03:56PM 43.0703 -71.5903 283° West 244 281 10,300  Level Boston Center
03:57PM 42.7339 -71.8687 310° West  Level FlightAware Approximate
03:57PM 43.0669 -71.6928 267° West 274 315 12,800  Level Boston Center
03:58PM 43.0633 -71.7978 267° West 274 315 14,600 1,320 Climbing Boston Center
03:59PM 43.0600 -71.9200 268° West 309 356 15,500 1,200 Climbing Boston Center
04:00PM 43.0542 -72.0422 266° West 324 373 17,100 1,260 Climbing Boston Center
04:01PM 43.0483 -72.1703 266° West 339 390 18,100 900 Climbing Boston Center
04:02PM 43.0442 -72.2753 267° West 344 396 19,000 960 Climbing Boston Center
04:03PM 43.0444 -72.4175 270° West 349 402 20,100 960 Climbing Boston Center
04:04PM 43.0381 -72.5508 266° West 349 402 21,000 900 Climbing Boston Center
04:05PM 43.0253 -72.6844 263° West 355 409 21,900 840 Climbing Boston Center
04:06PM 43.0186 -72.8233 266° West 360 414 22,700 720 Climbing Boston Center
04:07PM 43.0097 -72.9653 265° West 368 423 23,400 600 Climbing Boston Center
04:08PM 43.0069 -73.1244 269° West 378 435 24,000 240 Climbing Boston Center
04:09PM 42.9997 -73.2719 266° West 385 443 24,000  Level Boston Center
04:10PM 42.9717 -73.3964 253° West 390 449 24,000  Level Boston Center
04:11PM 42.8975 -73.5228 231° Southwest 389 448 24,000  Level Boston Center
04:12PM 42.8272 -73.6631 236° Southwest 402 463 24,000  Level Boston Center
04:13PM 42.7636 -73.7750 232° Southwest 428 493 24,000  Level Boston Center
04:14PM 42.6972 -73.9064 236° Southwest 428 493 24,000  Level Boston Center
04:15PM 42.6372 -74.0319 237° Southwest 423 487 24,000  Level Boston Center
04:16PM 42.5728 -74.1683 237° Southwest 423 487 24,000  Level Boston Center
04:17PM 42.5103 -74.2961 236° Southwest 423 487 24,000 -240 Level Boston Center
04:18PM 42.4456 -74.4264 236° Southwest 423 487 23,600 -1,140 Descending Boston Center
04:20PM 42.3058 -74.6992 235° Southwest 426 490 20,800 -1,440 Descending New York Center
04:21PM 42.2411 -74.8325 237° Southwest 426 490 19,400 -900 Descending New York Center
04:22PM 42.1722 -74.9597 234° Southwest 426 490 19,000 -240 Descending New York Center
04:23PM 42.0733 -75.0456 213° Southwest 417 480 19,000  Level New York Center
04:24PM 41.9767 -75.1286 213° Southwest 427 491 19,000  Level New York Center
04:25PM 41.8803 -75.2031 210° Southwest 416 479 19,000 -300 Level New York Center
04:26PM 41.7944 -75.2725 211° Southwest 416 479 18,400 -1,260 Descending New York Center
04:27PM 41.6847 -75.3594 211° Southwest 421 484 16,500 -1,860 Descending New York Center
04:28PM 41.5922 -75.4336 211° Southwest 414 476 14,700 -1,860 Descending New York Center
04:29PM 41.5042 -75.5050 211° Southwest 394 453 12,800 -1,380 Descending New York Center
04:30PM 41.4331 -75.5608 210° Southwest 352 405 12,000 -420 Descending New York Center
04:31PM 41.3642 -75.6167 211° Southwest 340 391 12,000  Level New York Center
04:32PM 41.2697 -75.6872 209° Southwest 346 398 12,000  Level New York Center
04:33PM 41.1531 -75.6869 180° South 359 413 12,000  Level New York Center
04:34PM 41.0489 -75.6878 180° South 377 434 12,000  Level New York Center
04:35PM 40.9467 -75.6886 180° South 377 434 12,000 -120 Level New York Center
04:36PM 40.8631 -75.6469 159° South 362 417 11,800 -1,020 Descending New York Center
04:37PM 40.7589 -75.5956 160° South 364 419 10,000 -900 Descending New York Center
04:38PM 40.6589 -75.5419 158° South 378 435 10,000  Level New York Center
04:39PM 40.5611 -75.4886 157° South 386 444 10,000  Level New York Center
04:40PM 40.4753 -75.4447 159° South 373 429 10,000 -660 Level New York Center
04:41PM 40.3917 -75.3981 157° South 321 369 8,700 -1,500 Descending New York Center
04:42PM 40.3183 -75.3550 156° South 303 349 7,000 -1,200 Descending New York Center
04:43PM 40.2469 -75.3150 157° South 287 330 6,400 -540 Descending New York Center
04:44PM 40.1775 -75.2778 158° South 281 323 6,000 -240 Descending New York Center
04:45PM 40.1225 -75.2472 157° South 237 273 6,000  Level New York Center
04:46PM 40.0714 -75.2167 155° Southeast 228 262 6,000  Level New York Center
04:47PM 40.0097 -75.1911 162° South 223 257 6,000  Level New York Center
04:48PM 39.9806 -75.1406 127° Southeast 197 227 6,000 -660 Level New York Center
04:49PM 39.9958 -75.0628 76° East 165 190 4,700 -1,020 Descending New York Center
04:50PM 39.9917 -75.0058 95° East 178 205 4,000 -1,140 Descending New York Center
04:51PM 39.9464 -75.0461 214° Southwest 101 116 2,500 -1,020 Descending New York Center
04:52PM 39.9133 -75.0931 227° Southwest 158 182 2,000 -720 Descending New York Center
04:53PM 39.9000 -75.1500 253° West 150 173 1,000 -900 Descending Philadelphia TRACON